Time;durP1;ratioP1;P1;durP2;ratioP2;P2;SDS_P1;SDS_P2;PMS_P1;PMS_P2;Temp;Humidity;BMP_temperature;BMP_pressure;BME280_temperature;BME280_humidity;BME280_pressure;Samples;Min_cycle;Max_cycle;Signal;HPM_P1;HPM_P2
2024/03/06 00:01:36;;;;;;;19.48;13.52;;;;;;;9.44;58.62;101710.22;4893220;28;113958;-69
2024/03/06 00:04:04;;;;;;;22.02;13.30;;;;;;;9.39;58.44;101714.75;4892092;28;124029;-69
2024/03/06 00:06:31;;;;;;;20.92;13.35;;;;;;;9.34;58.51;101714.00;4892553;28;123970;-69
2024/03/06 00:09:00;;;;;;;18.85;12.02;;;;;;;9.28;58.61;101712.38;4892144;28;114892;-69
2024/03/06 00:11:27;;;;;;;19.55;12.45;;;;;;;9.23;58.37;101713.38;4891626;28;114218;-69
2024/03/06 00:13:54;;;;;;;19.20;10.95;;;;;;;9.18;58.63;101720.59;4893233;28;124377;-69
2024/03/06 00:16:22;;;;;;;15.80;11.02;;;;;;;9.11;58.62;101725.16;4894173;28;122874;-69
2024/03/06 00:18:49;;;;;;;16.30;10.73;;;;;;;9.05;58.58;101726.16;4894717;28;113760;-69
2024/03/06 00:21:18;;;;;;;15.88;10.95;;;;;;;9.02;58.38;101726.22;4891437;28;114211;-69
2024/03/06 00:23:48;;;;;;;17.40;11.20;;;;;;;8.99;58.45;101723.69;4892205;28;124513;-69
2024/03/06 00:26:15;;;;;;;18.02;11.80;;;;;;;8.96;58.78;101721.09;4899471;28;123970;-69
2024/03/06 00:28:43;;;;;;;18.98;12.10;;;;;;;8.93;58.20;101726.47;4893973;28;114790;-69
2024/03/06 00:31:11;;;;;;;20.13;12.88;;;;;;;8.89;58.54;101724.78;4890101;28;113962;-69
2024/03/06 00:33:40;;;;;;;18.77;11.95;;;;;;;8.86;58.90;101724.88;4891203;28;124262;-70
2024/03/06 00:36:07;;;;;;;18.85;12.55;;;;;;;8.83;58.57;101730.22;4891013;28;123867;-69
2024/03/06 00:38:35;;;;;;;17.58;11.73;;;;;;;8.79;58.86;101728.56;4888927;28;113751;-68
2024/03/06 00:41:02;;;;;;;18.02;11.93;;;;;;;8.76;58.64;101743.59;4894503;28;113970;-69
2024/03/06 00:43:29;;;;;;;19.58;12.25;;;;;;;8.71;58.62;101732.25;4907252;28;123607;-69
2024/03/06 00:45:57;;;;;;;21.73;12.02;;;;;;;8.67;58.67;101746.44;4894628;28;124457;-69
2024/03/06 00:48:24;;;;;;;20.33;12.63;;;;;;;8.65;58.69;101742.97;4891979;28;115199;-69
2024/03/06 00:50:52;;;;;;;21.90;13.18;;;;;;;8.63;58.86;101743.91;4891410;28;115020;-69
2024/03/06 00:53:19;;;;;;;18.98;12.27;;;;;;;8.61;58.96;101746.59;4907767;28;123326;-69
2024/03/06 00:55:46;;;;;;;20.45;13.45;;;;;;;8.59;58.85;101748.38;4893711;28;124020;-70
2024/03/06 00:58:14;;;;;;;23.67;13.07;;;;;;;8.55;58.70;101744.06;4891457;28;114410;-69
2024/03/06 01:00:41;;;;;;;18.85;12.45;;;;;;;8.53;58.93;101744.13;4892506;28;113838;-69
2024/03/06 01:03:09;;;;;;;21.35;12.98;;;;;;;8.52;58.66;101744.13;4889624;28;124389;-69
2024/03/06 01:05:36;;;;;;;25.15;13.57;;;;;;;8.48;58.92;101753.03;4890630;28;124264;-69
2024/03/06 01:08:03;;;;;;;21.55;13.25;;;;;;;8.48;58.85;101753.03;4908861;28;113068;-69
2024/03/06 01:10:31;;;;;;;22.10;13.82;;;;;;;8.45;58.53;101755.72;4894072;28;114205;-69
2024/03/06 01:12:58;;;;;;;21.25;13.05;;;;;;;8.39;58.63;101754.06;4896257;28;124368;-69
2024/03/06 01:15:25;;;;;;;19.08;11.40;;;;;;;8.36;58.65;101762.91;4891974;28;123654;-69
2024/03/06 01:17:53;;;;;;;18.00;11.40;;;;;;;8.32;58.98;101766.50;4892658;28;114491;-69
2024/03/06 01:20:20;;;;;;;12.68;9.38;;;;;;;8.28;58.79;101769.25;4896901;28;114759;-68
2024/03/06 01:22:47;;;;;;;13.68;8.52;;;;;;;8.24;58.54;101763.16;4897846;28;124383;-69
2024/03/06 01:25:15;;;;;;;14.00;8.98;;;;;;;8.19;58.62;101767.66;4909008;28;123863;-69
2024/03/06 01:27:42;;;;;;;13.95;9.35;;;;;;;8.14;59.09;101772.19;4895498;28;114065;-69
2024/03/06 01:30:10;;;;;;;16.02;10.38;;;;;;;8.12;58.51;101776.63;4892669;28;113972;-69
2024/03/06 01:32:37;;;;;;;18.25;11.73;;;;;;;8.10;58.77;101775.75;4894915;28;124461;-69
2024/03/06 01:35:09;;;;;;;14.93;9.82;;;;;;;8.07;58.73;101766.13;4890271;28;124132;-68
2024/03/06 01:37:36;;;;;;;12.05;8.60;;;;;;;8.02;58.79;101770.63;4891264;28;115585;-69
2024/03/06 01:40:05;;;;;;;10.80;8.07;;;;;;;7.96;58.84;101784.81;4908532;28;114144;-69
2024/03/06 01:42:32;;;;;;;11.77;8.50;;;;;;;7.91;58.93;101776.13;4891392;28;124304;-68
2024/03/06 01:45:00;;;;;;;11.35;8.30;;;;;;;7.88;58.98;101781.44;4906443;28;122832;-69
2024/03/06 01:47:27;;;;;;;11.73;8.32;;;;;;;7.86;59.07;101788.53;4893871;28;114236;-69
2024/03/06 01:49:55;;;;;;;14.73;9.00;;;;;;;7.86;59.23;101788.53;4908461;28;110653;-70
2024/03/06 01:52:23;;;;;;;13.15;8.18;;;;;;;7.85;59.08;101792.03;4893362;28;123978;-70
2024/03/06 01:54:51;;;;;;;12.07;8.77;;;;;;;7.82;58.95;101792.13;4909757;28;124593;-70
2024/03/06 01:57:19;;;;;;;12.70;9.38;;;;;;;7.83;59.14;101793.84;4893230;28;114252;-70
2024/03/06 01:59:48;;;;;;;16.52;10.90;;;;;;;7.82;59.27;101796.50;4910149;28;113025;-70
2024/03/06 02:02:16;;;;;;;14.35;9.52;;;;;;;7.81;58.99;101790.38;4892724;28;124261;-70
2024/03/06 02:04:44;;;;;;;15.57;9.48;;;;;;;7.81;59.04;101795.66;4904453;28;123585;-70
2024/03/06 02:07:12;;;;;;;12.13;8.93;;;;;;;7.79;59.28;101797.44;4894344;28;113079;-70
2024/03/06 02:09:40;;;;;;;14.15;9.48;;;;;;;7.77;59.14;101800.09;4892486;28;113817;-70
2024/03/06 02:12:10;;;;;;;19.75;11.63;;;;;;;7.77;59.36;101799.25;4894658;28;124055;-70
2024/03/06 02:14:38;;;;;;;18.42;12.07;;;;;;;7.77;59.60;101812.44;4895495;28;124121;-71
2024/03/06 02:17:06;;;;;;;21.27;12.07;;;;;;;7.78;59.40;101791.31;4910047;28;113856;-71
2024/03/06 02:19:41;;;;;;;18.08;11.60;;;;;;;7.81;59.54;101800.91;4895924;28;113454;-71
2024/03/06 02:22:10;;;;;;;21.52;13.00;;;;;;;7.82;59.26;101802.69;4892806;28;124327;-71
2024/03/06 02:24:38;;;;;;;22.55;14.60;;;;;;;7.85;59.76;101801.72;4894765;28;124670;-70
2024/03/06 02:27:05;;;;;;;23.38;14.73;;;;;;;7.85;59.65;101807.88;4891852;28;115086;-71
2024/03/06 02:29:33;;;;;;;24.13;14.88;;;;;;;7.86;59.56;101799.06;4891998;28;115022;-71
2024/03/06 02:32:02;;;;;;;26.10;14.55;;;;;;;7.88;59.78;101805.19;4909447;28;122938;-71
2024/03/06 02:34:30;;;;;;;26.63;15.25;;;;;;;7.89;59.59;101814.84;4893889;28;123789;-71
2024/03/06 02:36:57;;;;;;;25.25;14.15;;;;;;;7.89;59.75;101813.97;4894096;28;114070;-71
2024/03/06 02:39:24;;;;;;;24.10;14.30;;;;;;;7.89;59.82;101812.22;4896201;28;113959;-71
2024/03/06 02:41:52;;;;;;;28.30;16.52;;;;;;;7.90;59.82;101816.56;4892969;28;124089;-71
2024/03/06 02:44:20;;;;;;;24.92;15.27;;;;;;;7.91;59.82;101813.06;4893804;28;123748;-71
2024/03/06 02:46:48;;;;;;;31.92;17.38;;;;;;;7.94;59.64;101823.53;4892923;28;114505;-71
2024/03/06 02:49:18;;;;;;;27.50;15.75;;;;;;;7.94;59.74;101812.97;4904486;28;112891;-71
2024/03/06 02:51:45;;;;;;;24.65;15.40;;;;;;;7.94;59.85;101812.97;4889772;28;124023;-71
2024/03/06 02:54:14;;;;;;;28.48;16.77;;;;;;;7.93;59.84;101811.25;4908189;28;122882;-70
2024/03/06 02:56:41;;;;;;;33.50;17.05;;;;;;;7.94;59.73;101807.72;4896026;28;114611;-70
2024/03/06 02:59:08;;;;;;;28.38;16.58;;;;;;;7.93;59.55;101811.25;4890566;28;113964;-70
2024/03/06 03:01:36;;;;;;;26.23;15.68;;;;;;;7.91;59.80;101813.06;4890515;28;123751;-71
2024/03/06 03:04:03;;;;;;;25.02;14.98;;;;;;;7.90;59.35;101807.81;4890181;28;123931;-70
2024/03/06 03:06:31;;;;;;;27.63;15.43;;;;;;;7.88;60.02;101805.19;4889993;28;113834;-70
2024/03/06 03:08:58;;;;;;;31.08;16.35;;;;;;;7.86;59.63;101809.63;4896122;28;114365;-70
2024/03/06 03:11:25;;;;;;;23.73;14.40;;;;;;;7.85;59.75;101807.88;4890820;28;124069;-70
2024/03/06 03:13:53;;;;;;;21.48;12.63;;;;;;;7.81;59.68;101811.47;4894214;28;123987;-70
2024/03/06 03:16:20;;;;;;;20.55;12.15;;;;;;;7.76;59.13;101808.03;4897818;28;114530;-70
2024/03/06 03:18:49;;;;;;;154.48;17.42;;;;;;;7.71;59.55;101815.19;4894318;28;115018;-70
2024/03/06 03:21:16;;;;;;;39.00;11.48;;;;;;;7.66;59.29;101817.00;4897024;28;124169;-71
2024/03/06 03:23:43;;;;;;;25.75;10.77;;;;;;;7.59;59.19;101821.50;4893678;28;123740;-71
2024/03/06 03:26:10;;;;;;;31.92;10.70;;;;;;;7.54;59.31;101818.97;4909037;28;113739;-70
2024/03/06 03:28:41;;;;;;;42.38;9.10;;;;;;;7.49;59.23;101831.34;4911284;28;112887;-71
2024/03/06 03:31:09;;;;;;;53.20;9.30;;;;;;;7.43;59.13;101826.19;4892391;28;124078;-70
2024/03/06 03:33:40;;;;;;;26.95;9.40;;;;;;;7.37;59.43;101826.28;4910203;28;123066;-70
2024/03/06 03:36:08;;;;;;;20.42;7.85;;;;;;;7.34;59.49;101831.59;4894901;28;114629;-70
2024/03/06 03:38:39;;;;;;;37.65;9.00;;;;;;;7.28;59.40;101826.44;4893821;28;114592;-71
2024/03/06 03:41:16;;;;;;;16.33;7.63;;;;;;;7.26;59.36;101828.22;4892130;28;123213;-70
2024/03/06 03:43:45;;;;;;;15.98;8.15;;;;;;;7.23;59.48;101834.38;4908822;28;124193;-71
2024/03/06 03:46:13;;;;;;;23.88;7.45;;;;;;;7.20;59.71;101835.31;4893427;28;114938;-70
2024/03/06 03:48:40;;;;;;;16.85;7.10;;;;;;;7.18;59.38;101829.19;4891626;28;114434;-71
2024/03/06 03:51:08;;;;;;;15.27;7.38;;;;;;;7.16;59.58;101836.25;4892460;28;124245;-71
2024/03/06 03:53:35;;;;;;;11.30;6.90;;;;;;;7.14;59.77;101838.03;4893336;28;124136;-70
2024/03/06 03:56:03;;;;;;;11.43;7.18;;;;;;;7.13;59.45;101844.19;4892677;28;114200;-70
2024/03/06 03:58:31;;;;;;;25.02;7.20;;;;;;;7.12;59.54;101837.19;4894042;28;114544;-70
2024/03/06 04:00:59;;;;;;;14.43;8.10;;;;;;;7.10;59.76;101838.09;4895022;28;123701;-71
2024/03/06 04:03:26;;;;;;;14.10;7.32;;;;;;;7.09;59.67;101837.22;4896329;28;124383;-71
2024/03/06 04:05:53;;;;;;;22.73;7.30;;;;;;;7.07;59.52;101833.75;4894620;28;115490;-71
2024/03/06 04:08:20;;;;;;;16.83;7.63;;;;;;;7.06;59.66;101831.13;4895396;28;115294;-71
2024/03/06 04:10:48;;;;;;;22.08;7.50;;;;;;;7.03;59.51;101837.34;4892733;28;123958;-71
2024/03/06 04:13:16;;;;;;;15.63;7.95;;;;;;;7.00;59.52;101837.38;4894405;28;124255;-70
2024/03/06 04:15:43;;;;;;;10.52;7.75;;;;;;;6.97;59.53;101837.44;4895765;28;115086;-71
2024/03/06 04:18:12;;;;;;;14.00;7.63;;;;;;;6.96;59.18;101840.94;4910780;28;113328;-71
2024/03/06 04:20:39;;;;;;;28.73;8.05;;;;;;;6.94;59.27;101842.72;4889266;28;124773;-70
2024/03/06 04:23:08;;;;;;;14.18;7.85;;;;;;;6.91;59.28;101842.75;4899641;28;124663;-70
2024/03/06 04:25:35;;;;;;;23.67;8.73;;;;;;;6.88;59.66;101842.81;4906600;28;114005;-70
2024/03/06 04:28:03;;;;;;;20.77;8.50;;;;;;;6.86;59.50;101845.47;4909483;28;114067;-71
2024/03/06 04:30:30;;;;;;;20.80;7.60;;;;;;;6.81;59.62;101848.13;4884417;28;124624;-70
2024/03/06 04:32:57;;;;;;;10.55;6.35;;;;;;;6.75;59.43;101856.13;4886402;28;123973;-71
2024/03/06 04:35:25;;;;;;;21.27;6.95;;;;;;;6.70;59.56;101855.31;4893372;28;114325;-71
2024/03/06 04:37:52;;;;;;;13.50;6.68;;;;;;;6.69;59.84;101866.75;4889674;28;114309;-71
2024/03/06 04:40:22;;;;;;;27.10;8.48;;;;;;;6.68;59.93;101867.63;4895255;28;124403;-71
2024/03/06 04:42:49;;;;;;;18.23;8.75;;;;;;;6.68;59.76;101867.63;4892331;28;123987;-71
2024/03/06 04:45:17;;;;;;;28.70;7.68;;;;;;;6.68;59.83;101862.34;4893238;28;113302;-70
2024/03/06 04:47:44;;;;;;;9.60;7.20;;;;;;;6.68;59.58;101857.09;4893508;28;113859;-71
2024/03/06 04:50:14;;;;;;;10.10;7.45;;;;;;;6.68;59.89;101862.34;4892303;28;124262;-71
2024/03/06 04:52:42;;;;;;;14.05;7.82;;;;;;;6.69;59.76;101874.63;4907349;28;124005;-71
2024/03/06 04:55:12;;;;;;;9.23;7.18;;;;;;;6.68;59.69;101875.50;4894574;28;115289;-71
2024/03/06 04:57:43;;;;;;;47.75;10.15;;;;;;;6.69;59.74;101885.16;4896867;28;114852;-71
2024/03/06 05:00:12;;;;;;;32.72;8.93;;;;;;;6.68;59.52;101891.31;4890784;28;124113;-71
2024/03/06 05:02:39;;;;;;;28.90;6.53;;;;;;;6.62;59.75;101888.75;4899051;28;124601;-71
2024/03/06 05:05:24;;;;;;;25.00;6.13;;;;;;;6.56;59.85;101894.09;4901922;28;114502;-71
2024/03/06 05:08:13;;;;;;;23.45;6.03;;;;;;;6.55;59.50;101902.88;4892728;28;113939;-71
2024/03/06 05:11:03;;;;;;;29.95;6.63;;;;;;;6.49;59.70;101908.22;4892553;28;124121;-71
2024/03/06 05:13:47;;;;;;;27.77;6.18;;;;;;;6.48;59.99;101914.34;4894118;28;124212;-72
2024/03/06 05:16:32;;;;;;;21.73;6.43;;;;;;;6.47;59.65;101910.00;4897888;28;114294;-71
2024/03/06 05:19:17;;;;;;;17.43;6.50;;;;;;;6.47;59.58;101920.53;4890868;28;113666;-71
2024/03/06 05:22:02;;;;;;;35.60;7.07;;;;;;;6.48;59.58;101927.50;4896094;28;123913;-71
2024/03/06 05:24:46;;;;;;;34.55;7.70;;;;;;;6.49;60.03;101929.28;4893775;28;122784;-71
2024/03/06 05:27:31;;;;;;;19.58;7.10;;;;;;;6.47;59.89;101936.31;4905921;28;114226;-71
2024/03/06 05:30:16;;;;;;;17.47;7.07;;;;;;;6.43;59.93;101931.06;4893212;28;113812;-71
2024/03/06 05:33:01;;;;;;;37.37;7.80;;;;;;;6.42;59.56;101929.34;4893143;28;123807;-71
2024/03/06 05:35:46;;;;;;;23.87;7.23;;;;;;;6.41;59.82;101932.84;4892466;28;123816;-71
2024/03/06 05:38:31;;;;;;;23.73;7.60;;;;;;;6.41;59.56;101935.47;4898598;28;113740;-71
2024/03/06 05:41:17;;;;;;;20.90;6.78;;;;;;;6.41;59.74;101935.47;4894422;28;113859;-72
2024/03/06 05:44:04;;;;;;;25.02;7.22;;;;;;;6.42;59.66;101939.88;4894180;28;123988;-71
2024/03/06 05:46:48;;;;;;;19.48;7.03;;;;;;;6.42;59.98;101949.50;4900148;28;123929;-71
2024/03/06 05:49:34;;;;;;;;;;;;;;;6.39;59.84;101947.78;4893381;28;96623;-70
2024/03/06 05:52:19;;;;;;;19.08;6.63;;;;;;;6.39;59.31;101954.81;4891971;28;115354;-71
2024/03/06 05:55:06;;;;;;;15.15;6.88;;;;;;;6.36;59.35;101954.81;4892647;28;123728;-71
2024/03/06 05:57:50;;;;;;;13.05;6.47;;;;;;;6.29;59.28;101954.03;4910289;28;122766;-71
2024/03/06 06:00:36;;;;;;;13.57;6.78;;;;;;;6.25;59.62;101968.06;4892261;28;114280;-71
2024/03/06 06:03:03;;;;;;;11.15;6.68;;;;;;;6.23;59.42;101969.84;4891281;28;114310;-71
2024/03/06 06:05:30;;;;;;;15.50;6.72;;;;;;;6.21;59.50;101976.88;4908933;28;123665;-71
2024/03/06 06:07:58;;;;;;;15.85;7.45;;;;;;;6.22;59.58;101978.66;4897730;28;122906;-71
2024/03/06 06:10:25;;;;;;;14.35;6.93;;;;;;;6.23;59.69;101986.53;4908734;28;114029;-71
2024/03/06 06:12:53;;;;;;;22.70;6.57;;;;;;;6.26;59.90;101985.63;4903750;28;113060;-71
2024/03/06 06:15:20;;;;;;;19.08;7.13;;;;;;;6.28;59.64;101983.84;4888965;28;123833;-72
2024/03/06 06:17:47;;;;;;;25.17;7.03;;;;;;;6.30;59.71;101992.59;4891433;28;124687;-72
2024/03/06 06:20:16;;;;;;;12.95;6.63;;;;;;;6.30;59.90;101995.22;4896783;28;114126;-71
2024/03/06 06:22:44;;;;;;;17.23;6.72;;;;;;;6.28;59.71;101991.72;4892482;28;113864;-71
2024/03/06 06:25:13;;;;;;;16.90;7.35;;;;;;;6.31;59.91;102007.50;4890297;28;124086;-70
2024/03/06 06:27:40;;;;;;;15.45;7.40;;;;;;;6.31;59.71;102004.88;4892745;28;122693;-71
2024/03/06 06:30:14;;;;;;;14.27;7.20;;;;;;;6.33;60.17;102012.72;4875909;28;113249;-71
2024/03/06 06:32:42;;;;;;;14.75;7.00;;;;;;;6.34;60.05;102012.72;4892700;28;114068;-71
2024/03/06 06:35:14;;;;;;;12.40;7.00;;;;;;;6.36;60.27;102018.84;4889769;28;124877;-71
2024/03/06 06:37:41;;;;;;;10.07;7.10;;;;;;;6.39;59.84;102013.56;4893183;28;124564;-71
2024/03/06 06:40:09;;;;;;;13.27;6.88;;;;;;;6.42;59.93;102008.28;4889787;28;115637;-71
2024/03/06 06:42:38;;;;;;;13.77;7.22;;;;;;;6.43;59.77;102017.91;4885230;28;115076;-71
2024/03/06 06:45:06;;;;;;;12.95;7.50;;;;;;;6.45;59.89;102027.56;4893651;28;123708;-71
2024/03/06 06:47:34;;;;;;;13.85;7.57;;;;;;;6.46;59.55;102035.44;4910872;28;123730;-72
2024/03/06 06:50:05;;;;;;;15.32;7.57;;;;;;;6.46;59.83;102039.81;4895616;28;114467;-71
2024/03/06 06:52:33;;;;;;;14.88;7.45;;;;;;;6.47;59.73;102041.56;4907755;28;113138;-71
2024/03/06 06:55:02;;;;;;;14.10;7.82;;;;;;;6.49;60.15;102045.94;4911838;28;123942;-71
2024/03/06 06:57:30;;;;;;;16.98;7.95;;;;;;;6.51;60.18;102048.56;4894921;28;124045;-71
2024/03/06 06:59:58;;;;;;;16.80;7.50;;;;;;;6.55;60.06;102045.00;4896283;28;114383;-71
2024/03/06 07:02:26;;;;;;;18.92;7.55;;;;;;;6.56;60.18;102052.88;4896972;28;113902;-71
2024/03/06 07:04:53;;;;;;;15.88;7.43;;;;;;;6.60;60.14;102049.34;4895782;28;125361;-71
2024/03/06 07:07:21;;;;;;;11.20;6.90;;;;;;;6.65;60.10;102062.47;4903469;28;123920;-71
2024/03/06 07:09:51;;;;;;;12.57;7.45;;;;;;;6.68;60.36;102051.91;4910464;28;114346;-71
2024/03/06 07:12:18;;;;;;;13.20;7.70;;;;;;;6.70;60.04;102055.38;4892723;28;113902;-71
2024/03/06 07:14:46;;;;;;;13.48;7.63;;;;;;;6.75;60.48;102069.38;4892313;28;125498;-71
2024/03/06 07:17:13;;;;;;;10.52;7.38;;;;;;;6.79;60.14;102071.09;4894326;28;124362;-71
2024/03/06 07:19:42;;;;;;;15.13;7.55;;;;;;;6.87;60.06;102072.78;4893630;28;114569;-71
2024/03/06 07:22:09;;;;;;;14.98;7.40;;;;;;;6.91;60.16;102079.78;4892289;28;114074;-71
2024/03/06 07:24:37;;;;;;;19.38;7.78;;;;;;;6.96;60.21;102075.34;4894685;28;123861;-72
2024/03/06 07:27:05;;;;;;;11.38;6.72;;;;;;;7.01;60.56;102076.16;4910496;28;123177;-72
2024/03/06 07:29:33;;;;;;;10.95;7.35;;;;;;;7.05;60.03;102077.00;4895640;28;115794;-71
2024/03/06 07:32:01;;;;;;;16.40;7.28;;;;;;;7.09;60.56;102079.59;4892280;28;114870;-71
2024/03/06 07:34:28;;;;;;;15.90;7.40;;;;;;;7.14;60.31;102085.69;4895299;28;124401;-71
2024/03/06 07:36:56;;;;;;;21.65;8.35;;;;;;;7.16;60.25;102086.53;4894778;28;124499;-71
2024/03/06 07:39:23;;;;;;;14.18;7.30;;;;;;;7.17;60.47;102093.53;4894932;28;114642;-71
2024/03/06 07:41:51;;;;;;;16.55;8.25;;;;;;;7.18;60.23;102099.69;4895844;28;113905;-71
2024/03/06 07:44:20;;;;;;;17.00;7.80;;;;;;;7.19;60.57;102112.84;4897052;28;124032;-73
2024/03/06 07:46:47;;;;;;;23.00;7.40;;;;;;;7.24;60.48;102109.31;4912074;28;123471;-73
2024/03/06 07:49:14;;;;;;;12.35;7.05;;;;;;;7.27;60.35;102114.53;4888762;28;114994;-73
2024/03/06 07:51:42;;;;;;;20.70;7.35;;;;;;;7.31;60.38;102110.97;4894451;28;114141;-73
2024/03/06 07:54:11;;;;;;;16.00;6.95;;;;;;;7.32;60.34;102107.44;4893144;28;123505;-73
2024/03/06 07:56:38;;;;;;;24.50;7.30;;;;;;;7.34;60.39;102111.78;4892427;28;123889;-73
2024/03/06 07:59:08;;;;;;;28.80;6.80;;;;;;;7.36;60.47;102119.69;4896526;28;114163;-74
2024/03/06 08:01:35;;;;;;;27.92;7.57;;;;;;;7.39;60.63;102119.66;4894572;28;113976;-73
2024/03/06 08:04:03;;;;;;;18.92;7.40;;;;;;;7.42;60.55;102114.34;4895488;28;124634;-74
2024/03/06 08:06:32;;;;;;;15.45;7.10;;;;;;;7.50;60.92;102123.06;4893992;28;123944;-73
2024/03/06 08:09:00;;;;;;;23.52;7.38;;;;;;;7.56;60.82;102116.84;4909815;28;114891;-74
2024/03/06 08:11:29;;;;;;;15.35;7.30;;;;;;;7.59;60.60;102122.94;4908718;28;114130;-73
2024/03/06 08:14:07;;;;;;;12.27;6.80;;;;;;;7.63;60.48;102117.63;4894599;28;124565;-74
2024/03/06 08:16:34;;;;;;;26.02;7.47;;;;;;;7.68;60.58;102126.34;4893796;28;123538;-73
2024/03/06 08:19:03;;;;;;;25.70;7.18;;;;;;;7.73;60.85;102124.53;4893865;28;115078;-73
2024/03/06 08:21:31;;;;;;;16.38;6.80;;;;;;;7.76;60.88;102135.03;4908597;28;115282;-73
2024/03/06 08:23:59;;;;;;;16.10;6.97;;;;;;;7.82;60.75;102134.97;4902430;28;124042;-74
2024/03/06 08:26:26;;;;;;;21.25;7.07;;;;;;;7.90;60.87;102137.50;4910012;28;122949;-74
2024/03/06 08:28:55;;;;;;;12.60;6.40;;;;;;;7.96;60.70;102143.56;4895146;28;114470;-73
2024/03/06 08:31:22;;;;;;;18.30;7.40;;;;;;;8.05;61.07;102136.44;4910860;28;113297;-73
2024/03/06 08:33:50;;;;;;;23.65;7.30;;;;;;;8.12;60.84;102138.09;4894954;28;124384;-75
2024/03/06 08:36:19;;;;;;;17.73;7.80;;;;;;;8.16;60.69;102135.38;4911326;28;123288;-74
2024/03/06 08:38:46;;;;;;;25.95;7.88;;;;;;;8.22;60.96;102145.00;4896547;28;113834;-74
2024/03/06 08:41:14;;;;;;;20.45;7.55;;;;;;;8.26;60.73;102146.69;4894188;28;114625;-73
2024/03/06 08:43:41;;;;;;;21.90;7.80;;;;;;;8.33;61.00;102156.25;4898008;28;123653;-74
2024/03/06 08:46:08;;;;;;;22.38;8.60;;;;;;;8.38;60.80;102154.44;4893733;28;124460;-73
2024/03/06 08:48:36;;;;;;;19.23;7.97;;;;;;;8.46;60.64;102153.50;4894140;28;114310;-73
2024/03/06 08:51:10;;;;;;;13.20;7.72;;;;;;;8.51;60.94;102156.91;4880682;28;114144;-73
2024/03/06 08:53:41;;;;;;;15.60;8.25;;;;;;;8.56;61.15;102160.34;4902292;28;124345;-73
2024/03/06 08:56:11;;;;;;;17.45;8.52;;;;;;;8.66;61.17;102169.00;4893248;28;123886;-73
2024/03/06 08:58:38;;;;;;;20.13;8.40;;;;;;;8.74;60.87;102170.63;4893989;28;114636;-74
2024/03/06 09:01:06;;;;;;;29.13;8.25;;;;;;;8.82;60.72;102169.66;4892672;28;114394;-73
2024/03/06 09:03:33;;;;;;;18.75;8.35;;;;;;;8.87;60.66;102175.72;4910708;28;123907;-73
2024/03/06 09:06:02;;;;;;;19.33;8.57;;;;;;;8.91;60.68;102172.13;4907931;28;123571;-73
2024/03/06 09:08:30;;;;;;;16.48;8.13;;;;;;;8.96;60.82;102175.56;4904391;28;115021;-72
2024/03/06 09:10:58;;;;;;;15.95;8.45;;;;;;;9.02;60.82;102175.44;4892384;28;114821;-72
2024/03/06 09:13:26;;;;;;;25.17;8.05;;;;;;;9.13;60.94;102183.19;4893696;28;124652;-73
2024/03/06 09:15:55;;;;;;;17.48;8.27;;;;;;;9.20;60.98;102189.25;4905827;28;123530;-73
2024/03/06 09:18:22;;;;;;;21.83;8.52;;;;;;;9.26;60.93;102189.16;4899443;28;113928;-73
2024/03/06 09:20:49;;;;;;;20.02;8.32;;;;;;;9.30;60.55;102196.13;4897422;28;113723;-73
2024/03/06 09:23:17;;;;;;;18.55;8.38;;;;;;;9.33;60.58;102190.78;4896541;28;124799;-73
2024/03/06 09:25:45;;;;;;;16.23;8.48;;;;;;;9.36;60.71;102196.00;4909745;28;122716;-72
2024/03/06 09:28:12;;;;;;;19.42;8.15;;;;;;;9.43;60.73;102187.06;4893008;28;114375;-72
2024/03/06 09:30:41;;;;;;;16.55;7.75;;;;;;;9.49;60.74;102194.91;4914331;28;112988;-72
2024/03/06 09:33:09;;;;;;;14.90;8.02;;;;;;;9.57;61.01;102199.16;4890987;28;124703;-72
2024/03/06 09:35:36;;;;;;;14.02;8.48;;;;;;;9.68;60.98;102202.47;4889727;28;123701;-72
2024/03/06 09:38:03;;;;;;;14.20;8.55;;;;;;;9.80;61.13;102202.22;4890811;28;113177;-72
2024/03/06 09:40:31;;;;;;;12.55;8.50;;;;;;;9.88;61.06;102210.88;4893494;28;114009;-72
2024/03/06 09:42:59;;;;;;;17.95;8.82;;;;;;;9.96;60.80;102212.50;4890578;28;123959;-72
2024/03/06 09:45:27;;;;;;;15.90;8.43;;;;;;;10.01;60.50;102210.63;4895330;28;123693;-71
2024/03/06 09:47:54;;;;;;;13.85;8.48;;;;;;;10.03;60.64;102219.41;4891195;28;114638;-72
2024/03/06 09:50:25;;;;;;;17.83;9.05;;;;;;;10.06;60.83;102220.22;4906444;28;113999;-73
2024/03/06 09:52:55;;;;;;;19.98;10.15;;;;;;;10.14;60.70;102218.28;4909514;28;123180;-72
2024/03/06 09:55:22;;;;;;;19.75;10.68;;;;;;;10.25;60.95;102225.16;4892585;28;123710;-72
2024/03/06 09:57:50;;;;;;;19.35;10.85;;;;;;;10.33;60.76;102228.53;4890905;28;115170;-71
2024/03/06 10:00:21;;;;;;;21.40;11.50;;;;;;;10.42;60.94;102227.47;4910596;28;113839;-71
2024/03/06 10:02:57;;;;;;;21.48;11.93;;;;;;;10.51;60.73;102232.56;4886998;28;124520;-71
2024/03/06 10:05:24;;;;;;;;;;;;;;;10.56;60.64;102225.34;4892145;28;123922;-72
2024/03/06 10:08:16;;;;;;;22.88;11.35;;;;;;;10.63;60.37;102234.91;4897610;28;115820;-71
2024/03/06 10:10:46;;;;;;;22.48;11.77;;;;;;;10.63;60.25;102232.25;4911592;28;113315;-71
2024/03/06 10:13:16;;;;;;;23.77;12.20;;;;;;;10.61;60.51;102234.06;4892473;28;123992;-71
2024/03/06 10:16:03;;;;;;;26.10;12.93;;;;;;;10.63;60.50;102232.25;4892576;28;124353;-71
2024/03/06 10:18:32;;;;;;;26.05;14.25;;;;;;;10.68;60.55;102240.97;4893024;28;114003;-71
2024/03/06 10:21:01;;;;;;;28.92;15.65;;;;;;;10.74;60.40;102239.06;4909874;28;113071;-71
2024/03/06 10:23:31;;;;;;;30.90;17.33;;;;;;;10.79;60.66;102237.19;4894029;28;124330;-72
2024/03/06 10:25:58;;;;;;;29.00;17.15;;;;;;;10.89;60.83;102233.44;4892448;28;124486;-72
2024/03/06 10:28:28;;;;;;;32.60;16.80;;;;;;;10.97;60.79;102236.75;4907778;28;113316;-71
2024/03/06 10:31:04;;;;;;;32.72;17.38;;;;;;;11.04;60.85;102241.00;4890752;28;113952;-71
2024/03/06 10:33:32;;;;;;;29.77;17.65;;;;;;;11.15;60.92;102234.56;4893708;28;123951;-71
2024/03/06 10:36:00;;;;;;;32.47;18.50;;;;;;;11.28;61.33;102246.59;4891735;28;124146;-71
2024/03/06 10:38:37;;;;;;;34.47;18.50;;;;;;;11.38;61.14;102248.13;4893117;28;113975;-71
2024/03/06 10:41:07;;;;;;;36.22;19.05;;;;;;;11.49;61.13;102240.75;4893845;28;115241;-71
2024/03/06 10:43:38;;;;;;;31.55;17.60;;;;;;;11.61;61.09;102249.31;4891049;28;124580;-71
2024/03/06 10:46:09;;;;;;;33.20;17.88;;;;;;;11.73;60.88;102243.66;4890055;28;123935;-71
2024/03/06 10:48:41;;;;;;;31.75;19.08;;;;;;;11.84;61.07;102241.56;4889908;28;115512;-71
2024/03/06 10:51:10;;;;;;;33.90;19.25;;;;;;;11.92;60.90;102246.69;4891521;28;115576;-71
2024/03/06 10:53:39;;;;;;;34.65;19.08;;;;;;;12.02;60.87;102249.97;4891971;28;125166;-71
2024/03/06 10:56:09;;;;;;;34.30;19.13;;;;;;;12.10;60.78;102250.63;4893561;28;124131;-71
2024/03/06 10:58:38;;;;;;;33.15;19.15;;;;;;;12.20;61.00;102248.56;4890323;28;115049;-71
2024/03/06 11:01:08;;;;;;;36.22;19.05;;;;;;;12.29;60.73;102242.13;4891403;28;114258;-71
2024/03/06 11:03:37;;;;;;;31.33;17.38;;;;;;;12.34;60.57;102242.81;4890859;28;123542;-71
2024/03/06 11:06:07;;;;;;;29.85;17.05;;;;;;;12.38;60.63;102249.81;4889307;28;124523;-71
2024/03/06 11:08:34;;;;;;;26.27;16.27;;;;;;;12.41;60.44;102249.72;4891779;28;112418;-71
2024/03/06 11:11:21;;;;;;;28.30;17.17;;;;;;;12.49;60.66;102247.72;4890292;28;114057;-71
2024/03/06 11:13:54;;;;;;;27.50;17.08;;;;;;;12.59;60.65;102254.47;4890319;28;124211;-71
2024/03/06 11:16:33;;;;;;;32.95;19.17;;;;;;;12.68;60.51;102249.78;4892874;28;124420;-71
2024/03/06 11:19:07;;;;;;;29.75;18.05;;;;;;;12.77;60.50;102244.16;4892141;28;114830;-70
2024/03/06 11:21:45;;;;;;;29.47;17.63;;;;;;;12.82;60.44;102245.75;4889613;28;114161;-70
2024/03/06 11:24:19;;;;;;;31.58;18.05;;;;;;;12.92;60.59;102243.69;4891408;28;124114;-70
2024/03/06 11:26:48;;;;;;;27.23;17.00;;;;;;;13.00;60.59;102246.97;4891394;28;123693;-70